Time;durP1;ratioP1;P1;durP2;ratioP2;P2;SDS_P1;SDS_P2;PMS_P1;PMS_P2;Temp;Humidity;BMP_temperature;BMP_pressure;BME280_temperature;BME280_humidity;BME280_pressure;Samples;Min_cycle;Max_cycle;Signal;HPM_P1;HPM_P2
2022/08/12 00:43:26;;;;;;;;;;;;;;;;;;;;;
2022/08/12 00:46:40;;;;;;;;;;;;;;;;;;;;;
2022/08/12 00:49:48;;;;;;;;;;;;;;;;;;;;;
2022/08/12 00:53:03;;;;;;;;;;;;;;;;;;;;;
2022/08/12 00:55:29;;;;;;;10.15;7.07;;;17.50;99.90;;;;;;6246719;23;20024;-88
2022/08/12 00:59:09;;;;;;;10.60;8.13;;;18.00;99.90;;;;;;6219761;23;20535;-87
2022/08/12 01:02:05;;;;;;;10.23;8.98;;;18.70;99.90;;;;;;6232359;22;20021;-87
2022/08/12 01:14:44;;;;;;;;;;;;;;;;;;;;;
2022/08/12 01:18:04;;;;;;;12.35;9.45;;;19.00;99.90;;;;;;6100911;23;20024;-88
2022/08/12 01:29:16;;;;;;;9.90;8.77;;;18.80;99.90;;;;;;6244933;23;20027;-88
2022/08/12 01:31:28;;;;;;;10.95;8.38;;;18.10;99.90;;;;;;6223466;22;20024;-87
2022/08/12 01:34:59;;;;;;;;;;;;;;;;;;;;;
2022/08/12 01:37:41;;;;;;;10.10;7.78;;;17.90;99.90;;;;;;6237988;22;20016;-87
2022/08/12 01:43:25;;;;;;;11.82;9.10;;;17.80;99.90;;;;;;6229865;23;20020;-87
2022/08/12 01:46:50;;;;;;;13.68;9.50;;;17.80;99.90;;;;;;6220734;23;20023;-87
2022/08/12 01:49:39;;;;;;;10.27;8.45;;;17.90;99.90;;;;;;6185655;23;20024;-88
2022/08/12 01:53:15;;;;;;;;;;;;;;;;;;;;;
2022/08/12 01:56:07;;;;;;;10.68;9.48;;;17.70;99.90;;;;;;6245837;23;20016;-87
2022/08/12 02:02:06;;;;;;;;;;;;;;;;;;;;;
2022/08/12 02:11:56;;;;;;;;;;;;;;;;;;;;;
2022/08/12 02:15:05;;;;;;;13.00;9.00;;;17.20;99.90;;;;;;6225339;22;20027;-87
2022/08/12 02:21:31;;;;;;;11.73;9.35;;;17.00;99.90;;;;;;6235337;23;20020;-87
2022/08/12 02:23:59;;;;;;;11.82;8.98;;;16.20;99.90;;;;;;6244858;23;20020;-88
2022/08/12 02:26:31;;;;;;;11.75;9.93;;;17.00;99.90;;;;;;6244850;23;20440;-88
2022/08/12 02:29:34;;;;;;;;;;;;;;;;;;;;;
2022/08/12 02:32:11;;;;;;;12.82;8.65;;;17.10;99.90;;;;;;6186826;23;20055;-88
2022/08/12 02:34:51;;;;;;;;;;;;;;;;;;;;;
2022/08/12 02:41:05;;;;;;;10.20;9.10;;;17.10;99.90;;;;;;6240889;22;20135;-86
2022/08/12 02:43:54;;;;;;;12.38;9.50;;;17.00;99.90;;;;;;6241817;22;20019;-87
2022/08/12 02:46:37;;;;;;;12.80;9.40;;;17.10;99.90;;;;;;6246838;22;20020;-88
2022/08/12 02:49:43;;;;;;;12.23;8.82;;;17.00;99.90;;;;;;6244982;23;20030;-87
2022/08/12 02:52:13;;;;;;;11.15;9.27;;;17.10;99.90;;;;;;6238738;22;20070;-87
2022/08/12 02:54:58;;;;;;;10.77;8.18;;;17.00;99.90;;;;;;6245403;23;20020;-89
2022/08/12 02:57:33;;;;;;;11.15;8.50;;;17.00;99.90;;;;;;6244102;23;20023;-86
2022/08/12 03:00:03;;;;;;;8.98;8.15;;;17.00;99.90;;;;;;6246287;22;20024;-87
2022/08/12 03:02:34;;;;;;;15.55;9.27;;;17.10;99.90;;;;;;6246767;22;20016;-86
2022/08/12 03:05:17;;;;;;;;;;;;;;;;;;;;;
2022/08/12 03:07:59;;;;;;;11.60;7.90;;;16.90;99.90;;;;;;6244541;22;20356;-87
2022/08/12 03:10:30;;;;;;;11.50;7.97;;;17.10;99.90;;;;;;6246688;22;20019;-87
2022/08/12 03:12:58;;;;;;;10.23;8.38;;;17.30;99.90;;;;;;6218535;23;20103;-87
2022/08/12 03:15:26;;;;;;;11.60;8.40;;;17.20;99.90;;;;;;6220745;23;20460;-87
2022/08/12 03:18:19;;;;;;;12.38;8.70;;;17.20;99.90;;;;;;6245200;23;20049;-88
2022/08/12 03:20:45;;;;;;;11.57;7.97;;;17.20;99.90;;;;;;6203504;23;20089;-87
2022/08/12 03:23:16;;;;;;;9.52;8.15;;;17.20;99.90;;;;;;6246095;23;20367;-88
2022/08/12 03:25:45;;;;;;;9.77;8.30;;;17.20;99.90;;;;;;6243597;23;20448;-88
2022/08/12 03:28:49;;;;;;;11.70;8.13;;;17.20;99.90;;;;;;6245047;23;20344;-87
2022/08/12 03:31:46;;;;;;;9.55;7.70;;;17.20;99.90;;;;;;6243824;22;20016;-88
2022/08/12 03:34:28;;;;;;;8.55;7.65;;;16.10;99.90;;;;;;6242370;23;20020;-88
2022/08/12 03:36:57;;;;;;;11.25;7.38;;;17.00;99.90;;;;;;6219354;23;20383;-87
2022/08/12 03:39:44;;;;;;;10.73;7.95;;;17.10;99.90;;;;;;6243645;23;20016;-88
2022/08/12 03:42:21;;;;;;;16.42;8.23;;;17.10;99.90;;;;;;6246617;22;20383;-87
2022/08/12 04:01:58;;;;;;;13.48;7.85;;;16.50;99.90;;;;;;6245454;23;20390;-86
2022/08/12 04:04:25;;;;;;;8.90;7.13;;;15.40;99.90;;;;;;6246936;23;20439;-86
2022/08/12 04:06:51;;;;;;;8.10;7.30;;;16.50;99.90;;;;;;6247977;22;20020;-86
2022/08/12 04:09:20;;;;;;;9.05;7.25;;;16.40;99.90;;;;;;6220557;23;20031;-86
2022/08/12 04:14:32;;;;;;;10.13;7.47;;;16.40;99.90;;;;;;6245371;23;20024;-86
2022/08/12 04:16:58;;;;;;;7.60;6.80;;;16.50;99.90;;;;;;6246441;23;20436;-86
2022/08/12 04:19:25;;;;;;;10.55;6.65;;;16.50;99.90;;;;;;6248564;22;20035;-86
2022/08/12 04:21:52;;;;;;;10.65;7.40;;;16.50;99.90;;;;;;6245494;23;20471;-87
2022/08/12 04:24:19;;;;;;;14.35;7.75;;;16.40;99.90;;;;;;6217260;22;20025;-87
2022/08/12 04:26:45;;;;;;;8.73;7.03;;;16.40;99.90;;;;;;6241278;23;20097;-87
2022/08/12 04:29:11;;;;;;;13.23;7.88;;;16.40;99.90;;;;;;6215030;23;20419;-87
2022/08/12 04:31:40;;;;;;;7.78;6.40;;;16.30;99.90;;;;;;6217689;23;20017;-87
2022/08/12 04:34:08;;;;;;;7.82;6.60;;;16.40;99.90;;;;;;6217762;23;20023;-87
2022/08/12 04:37:35;;;;;;;8.95;5.88;;;16.20;99.90;;;;;;6215007;23;20031;-86
2022/08/12 04:43:21;;;;;;;12.32;7.28;;;15.60;99.90;;;;;;6062442;23;20057;-87
2022/08/12 04:45:51;;;;;;;7.80;6.38;;;16.20;99.90;;;;;;6072267;23;20458;-87
2022/08/12 04:48:49;;;;;;;7.90;6.53;;;16.00;99.90;;;;;;6096159;23;20023;-88
2022/08/12 04:57:08;;;;;;;10.77;6.22;;;16.00;99.90;;;;;;6240133;23;20059;-87
2022/08/12 05:22:28;;;;;;;6.55;5.75;;;16.90;99.90;;;;;;6129283;23;20100;-89
2022/08/12 05:25:15;;;;;;;7.05;5.45;;;15.80;99.90;;;;;;6189100;23;20028;-89
2022/08/12 05:27:49;;;;;;;8.30;5.38;;;16.60;99.90;;;;;;6215930;23;20464;-89
2022/08/12 05:30:48;;;;;;;9.95;5.07;;;16.20;99.90;;;;;;6217208;23;20025;-88
2022/08/12 05:34:39;;;;;;;10.13;5.50;;;16.70;99.90;;;;;;6214489;23;20025;-89
2022/08/12 05:36:46;;;;;;;9.48;6.15;;;16.80;99.90;;;;;;6207380;22;20028;-90
2022/08/12 05:39:40;;;;;;;8.23;5.72;;;17.00;99.90;;;;;;6239845;23;20020;-87
2022/08/12 05:42:39;;;;;;;;;;;;;;;;;;;;;
2022/08/12 05:45:21;;;;;;;8.23;6.25;;;17.30;99.90;;;;;;6215780;23;20070;-90
2022/08/12 05:47:46;;;;;;;5.90;5.07;;;17.60;99.90;;;;;;6214125;23;20020;-88
2022/08/12 05:50:18;;;;;;;8.82;6.07;;;17.70;99.90;;;;;;6240884;23;20023;-88
2022/08/12 05:52:47;;;;;;;7.88;5.55;;;17.90;99.90;;;;;;6215364;23;20021;-86
2022/08/12 05:55:36;;;;;;;8.32;5.20;;;18.10;99.90;;;;;;6216264;23;20067;-88
2022/08/12 05:58:06;;;;;;;12.90;5.38;;;18.30;99.90;;;;;;6238813;23;20027;-90
2022/08/12 06:00:33;;;;;;;6.05;4.00;;;18.40;99.90;;;;;;6240079;23;20460;-88
2022/08/12 06:03:00;;;;;;;13.02;4.60;;;18.60;99.90;;;;;;6217437;23;20055;-88
2022/08/12 06:05:33;;;;;;;9.93;3.70;;;18.70;99.90;;;;;;6219290;23;20092;-86
2022/08/12 06:08:00;;;;;;;7.38;4.30;;;18.70;99.90;;;;;;6214310;23;20437;-88
2022/08/12 06:10:32;;;;;;;9.75;4.80;;;18.90;99.90;;;;;;6215424;23;20511;-88
2022/08/12 06:13:02;;;;;;;9.70;4.80;;;19.10;99.90;;;;;;6215021;23;20020;-87
2022/08/12 06:15:28;;;;;;;9.20;4.47;;;19.20;99.90;;;;;;6239649;23;20031;-88
2022/08/12 06:18:04;;;;;;;7.07;3.92;;;19.30;99.90;;;;;;6240810;23;20017;-87
2022/08/12 06:20:30;;;;;;;9.40;4.15;;;19.30;99.90;;;;;;6240861;23;20094;-89
2022/08/12 06:22:56;;;;;;;7.65;4.03;;;19.50;99.90;;;;;;6239251;23;20433;-88
2022/08/12 06:25:22;;;;;;;6.32;3.92;;;19.50;99.90;;;;;;6214456;23;20021;-88
2022/08/12 06:27:48;;;;;;;9.30;3.95;;;19.70;99.90;;;;;;6216717;23;20083;-86
2022/08/12 06:30:23;;;;;;;5.13;3.63;;;19.80;99.90;;;;;;6239171;23;20060;-86
2022/08/12 06:33:05;;;;;;;7.32;4.03;;;19.90;99.90;;;;;;6214959;23;20388;-86
2022/08/12 06:35:31;;;;;;;4.85;3.80;;;19.90;99.90;;;;;;6214750;23;20025;-87
2022/08/12 06:37:57;;;;;;;10.57;3.63;;;20.00;99.90;;;;;;6216657;23;20436;-86
2022/08/12 06:43:12;;;;;;;8.55;3.55;;;20.30;99.90;;;;;;6215293;23;20027;-85
2022/08/12 06:45:53;;;;;;;;;;;;;;;;;;;;;
2022/08/12 06:48:28;;;;;;;6.63;3.50;;;20.50;99.90;;;;;;6216107;23;20095;-85
2022/08/12 06:51:11;;;;;;;9.80;3.35;;;20.60;99.90;;;;;;6239600;23;20055;-85
2022/08/12 06:53:39;;;;;;;7.70;3.40;;;20.60;99.90;;;;;;6214774;23;20017;-87
2022/08/12 06:56:05;;;;;;;12.02;3.10;;;20.80;99.90;;;;;;6214682;23;20023;-86
2022/08/12 06:58:31;;;;;;;5.97;3.58;;;20.80;99.90;;;;;;6214073;23;20016;-85
2022/08/12 07:00:58;;;;;;;4.43;3.40;;;20.90;99.90;;;;;;6214712;23;20433;-86
2022/08/12 07:03:34;;;;;;;5.28;3.50;;;21.00;99.90;;;;;;6213662;23;20483;-86
2022/08/12 07:06:03;;;;;;;5.07;3.00;;;21.00;99.90;;;;;;6214668;23;20024;-85
2022/08/12 07:08:34;;;;;;;6.18;3.42;;;21.00;99.90;;;;;;6239710;23;20051;-86
2022/08/12 07:11:02;;;;;;;4.50;2.90;;;21.20;99.90;;;;;;6238874;23;20381;-84
2022/08/12 07:13:42;;;;;;;5.97;3.15;;;21.20;99.90;;;;;;6214902;23;20147;-85
2022/08/12 07:16:14;;;;;;;5.97;2.75;;;21.30;99.90;;;;;;6240409;23;20020;-85
2022/08/12 07:18:42;;;;;;;9.43;3.00;;;21.40;99.90;;;;;;6215441;23;20332;-86
2022/08/12 07:21:08;;;;;;;7.80;3.47;;;21.40;99.90;;;;;;6216349;23;20012;-87
2022/08/12 07:23:36;;;;;;;16.33;2.85;;;21.40;99.90;;;;;;6216562;23;20016;-85
2022/08/12 07:26:06;;;;;;;5.35;2.67;;;21.60;99.90;;;;;;6238598;23;20021;-85
2022/08/12 07:28:40;;;;;;;7.60;3.50;;;21.60;99.90;;;;;;6214439;23;20381;-86
2022/08/12 07:31:07;;;;;;;8.85;3.20;;;21.70;99.90;;;;;;6240161;23;20012;-85
2022/08/12 07:33:37;;;;;;;7.75;3.50;;;21.80;99.90;;;;;;6215286;23;20021;-85
2022/08/12 07:36:16;;;;;;;3.78;2.45;;;21.80;99.90;;;;;;6239772;23;20349;-87
2022/08/12 07:38:46;;;;;;;7.22;2.60;;;21.90;99.90;;;;;;6213479;23;20586;-85
2022/08/12 07:41:38;;;;;;;;;;;;;;;;;;;;;
2022/08/12 07:44:14;;;;;;;7.53;2.60;;;22.10;99.90;;;;;;6214918;23;20020;-87
2022/08/12 07:46:42;;;;;;;7.57;2.60;;;22.10;99.90;;;;;;6239032;23;20019;-86
2022/08/12 07:49:13;;;;;;;3.65;2.20;;;22.30;99.90;;;;;;6214644;23;20027;-86
2022/08/12 07:51:43;;;;;;;5.35;2.42;;;22.40;99.90;;;;;;6214332;23;20023;-87
2022/08/12 07:54:13;;;;;;;10.50;2.28;;;22.40;99.90;;;;;;6239010;23;20016;-86
2022/08/12 07:57:03;;;;;;;7.47;2.38;;;22.60;99.90;;;;;;6216491;23;20011;-88
2022/08/12 07:59:32;;;;;;;3.70;2.35;;;22.60;99.90;;;;;;6213748;23;20013;-85
2022/08/12 08:02:18;;;;;;;4.35;2.53;;;22.80;99.90;;;;;;6216119;23;20020;-88
2022/08/12 08:05:01;;;;;;;6.00;2.08;;;21.80;99.90;;;;;;6214340;23;20092;-86
2022/08/12 08:07:44;;;;;;;9.40;2.10;;;22.90;99.90;;;;;;6214860;23;20036;-86
2022/08/12 08:10:19;;;;;;;4.65;1.73;;;23.10;99.90;;;;;;6214787;23;20020;-87
2022/08/12 08:13:03;;;;;;;3.55;1.75;;;23.20;99.90;;;;;;6235936;23;20020;-87
2022/08/12 08:15:33;;;;;;;7.03;2.00;;;23.20;99.90;;;;;;6238889;23;20462;-86
2022/08/12 08:18:03;;;;;;;6.28;2.20;;;23.30;99.90;;;;;;6216505;23;20044;-85
2022/08/12 08:20:39;;;;;;;7.30;1.85;;;23.50;99.90;;;;;;6239611;23;20020;-85
2022/08/12 08:26:31;;;;;;;11.25;2.72;;;23.60;99.90;;;;;;6206689;23;20036;-85
2022/08/12 08:29:20;;;;;;;5.80;2.05;;;23.70;99.90;;;;;;6235304;23;20080;-86
2022/08/12 08:31:58;;;;;;;3.35;1.65;;;23.80;99.90;;;;;;6239407;23;20013;-85
2022/08/12 08:34:46;;;;;;;5.70;2.25;;;23.80;99.90;;;;;;6240301;23;20392;-86
2022/08/12 08:37:18;;;;;;;5.38;1.88;;;24.00;99.90;;;;;;6239482;23;20082;-85
2022/08/12 08:39:44;;;;;;;4.28;1.70;;;24.00;99.90;;;;;;6241174;23;20059;-85
2022/08/12 08:45:23;;;;;;;2.83;1.80;;;24.20;99.90;;;;;;6216799;23;20028;-87
2022/08/12 08:47:50;;;;;;;4.32;2.05;;;24.10;99.90;;;;;;6189383;23;20425;-85
2022/08/12 08:53:55;;;;;;;6.40;2.22;;;23.80;99.90;;;;;;6160015;23;20025;-86
2022/08/12 08:56:21;;;;;;;4.68;1.75;;;24.70;99.90;;;;;;6208556;23;20063;-85
2022/08/12 08:58:48;;;;;;;7.03;2.08;;;24.80;99.90;;;;;;6215881;23;20024;-85
2022/08/12 09:01:20;;;;;;;2.70;1.67;;;24.90;99.30;;;;;;6241575;23;20033;-85
2022/08/12 09:03:55;;;;;;;4.07;1.85;;;24.90;98.30;;;;;;6240707;23;20017;-86
2022/08/12 09:06:22;;;;;;;13.30;2.75;;;25.00;97.20;;;;;;6217705;23;20085;-86
2022/08/12 09:08:48;;;;;;;6.13;1.65;;;25.10;97.00;;;;;;6215621;23;20381;-83
2022/08/12 09:13:58;;;;;;;7.18;1.60;;;25.30;96.20;;;;;;6215802;23;20031;-85
2022/08/12 09:16:24;;;;;;;4.20;1.70;;;25.40;95.80;;;;;;6217453;23;20012;-84
2022/08/12 09:18:50;;;;;;;8.93;1.42;;;25.50;95.20;;;;;;6215158;23;20016;-84
2022/08/12 09:21:20;;;;;;;3.78;1.50;;;25.60;94.20;;;;;;6215621;23;20020;-85
2022/08/12 09:24:06;;;;;;;6.15;1.95;;;25.70;94.60;;;;;;6240854;23;20023;-86
2022/08/12 09:26:40;;;;;;;2.90;1.60;;;25.80;93.70;;;;;;6215223;23;20023;-83
2022/08/12 09:29:22;;;;;;;2.08;1.50;;;25.90;92.10;;;;;;6237806;23;20021;-87
2022/08/12 09:31:51;;;;;;;3.55;2.20;;;25.90;91.60;;;;;;6239496;23;20439;-84
2022/08/12 09:34:17;;;;;;;10.43;1.80;;;26.10;91.30;;;;;;6215415;23;20083;-85
2022/08/12 09:36:43;;;;;;;7.60;1.90;;;26.20;90.80;;;;;;6240724;23;20021;-86
2022/08/12 09:39:09;;;;;;;5.15;1.80;;;26.30;90.10;;;;;;6214565;23;20074;-85
2022/08/12 09:45:19;;;;;;;7.53;1.90;;;26.40;89.00;;;;;;6215867;23;20396;-85
2022/08/12 09:47:15;;;;;;;4.50;1.90;;;26.40;89.20;;;;;;6216421;23;20096;-84
2022/08/12 09:49:41;;;;;;;4.30;1.90;;;26.60;86.30;;;;;;6214999;23;20405;-85
2022/08/12 09:52:07;;;;;;;5.90;1.70;;;26.70;84.50;;;;;;6214311;23;20318;-84
2022/08/12 09:54:33;;;;;;;7.07;1.73;;;26.70;83.60;;;;;;6240906;23;20103;-85
2022/08/12 09:57:01;;;;;;;4.63;1.83;;;26.70;82.10;;;;;;6217427;23;20021;-85
2022/08/12 09:59:27;;;;;;;8.88;1.75;;;26.80;81.70;;;;;;6240648;23;20048;-84
2022/08/12 10:01:55;;;;;;;2.85;1.50;;;26.80;82.10;;;;;;6240986;23;20325;-86
2022/08/12 10:04:21;;;;;;;8.25;1.95;;;26.90;79.80;;;;;;6216971;23;20017;-86
2022/08/12 10:06:47;;;;;;;6.57;1.30;;;26.90;79.10;;;;;;6214251;23;20021;-84
2022/08/12 10:09:15;;;;;;;6.78;1.73;;;27.10;77.30;;;;;;6215039;23;20020;-84
2022/08/12 10:14:46;;;;;;;4.55;1.50;;;27.30;75.10;;;;;;6214588;23;20086;-86
2022/08/12 10:17:12;;;;;;;5.15;1.33;;;27.40;75.90;;;;;;6217193;23;20023;-86
2022/08/12 10:19:38;;;;;;;5.00;1.90;;;27.40;73.00;;;;;;6240396;23;20463;-87
2022/08/12 10:22:04;;;;;;;6.78;1.73;;;27.50;72.90;;;;;;6215567;23;20024;-85
2022/08/12 10:24:30;;;;;;;3.78;1.70;;;27.60;73.80;;;;;;6240821;23;20333;-84
2022/08/12 10:29:46;;;;;;;;;;;27.60;72.90;;;;;;6215764;23;20396;-86
2022/08/12 10:32:20;;;;;;;8.48;1.80;;;27.60;73.80;;;;;;6215511;23;19947;-85
2022/08/12 10:34:49;;;;;;;4.03;1.77;;;27.60;73.90;;;;;;6214289;23;20020;-86
2022/08/12 10:37:17;;;;;;;6.28;1.80;;;27.60;72.80;;;;;;6216404;23;20457;-85
2022/08/12 10:39:44;;;;;;;5.90;1.50;;;27.70;71.10;;;;;;6216717;23;20043;-85
2022/08/12 10:45:02;;;;;;;3.83;1.52;;;27.70;70.00;;;;;;6216220;23;20027;-85
2022/08/12 10:47:34;;;;;;;3.78;1.83;;;27.80;69.20;;;;;;6215163;23;20471;-85
2022/08/12 10:49:59;;;;;;;7.25;1.63;;;27.80;68.00;;;;;;6215751;23;20511;-85
2022/08/12 10:52:29;;;;;;;3.90;1.45;;;27.90;66.70;;;;;;6215009;23;20052;-85
2022/08/12 10:54:56;;;;;;;6.18;1.80;;;27.90;66.60;;;;;;6240346;23;20023;-85
2022/08/12 10:57:25;;;;;;;7.28;1.50;;;27.90;66.90;;;;;;6215615;23;20370;-86
2022/08/12 10:59:58;;;;;;;3.75;1.35;;;28.00;66.40;;;;;;6215261;23;20013;-86
2022/08/12 11:02:26;;;;;;;6.28;1.48;;;28.00;66.20;;;;;;6238815;23;20348;-85
2022/08/12 11:04:56;;;;;;;5.38;1.90;;;28.00;66.10;;;;;;6216442;23;20162;-85
2022/08/12 11:07:23;;;;;;;5.25;1.70;;;28.10;66.10;;;;;;6216621;23;20021;-84
2022/08/12 11:09:49;;;;;;;2.90;1.48;;;28.20;65.70;;;;;;6215360;23;20013;-85
2022/08/12 11:12:16;;;;;;;5.10;1.60;;;28.20;65.10;;;;;;6216443;23;20012;-85
2022/08/12 11:14:43;;;;;;;7.53;2.08;;;28.30;64.60;;;;;;6216085;23;20016;-85
2022/08/12 11:17:11;;;;;;;5.18;1.88;;;28.30;65.00;;;;;;6239420;23;20009;-86
2022/08/12 11:19:39;;;;;;;5.45;1.80;;;28.40;64.50;;;;;;6240427;23;20070;-84
2022/08/12 11:22:07;;;;;;;11.23;2.40;;;28.40;63.90;;;;;;6216289;23;20039;-84
2022/08/12 11:24:33;;;;;;;5.35;1.67;;;28.40;64.00;;;;;;6214358;23;20017;-84
2022/08/12 11:27:01;;;;;;;2.10;1.52;;;28.40;64.50;;;;;;6216085;23;20095;-85
2022/08/12 11:29:28;;;;;;;8.73;1.85;;;28.40;63.70;;;;;;6214390;23;20032;-85
2022/08/12 11:31:53;;;;;;;9.32;1.75;;;28.40;63.80;;;;;;6213962;23;20039;-86
2022/08/12 11:34:20;;;;;;;8.02;1.55;;;28.40;62.60;;;;;;6216434;23;20488;-86
2022/08/12 11:36:59;;;;;;;7.38;1.80;;;28.40;63.20;;;;;;6216275;23;20087;-85
2022/08/12 11:39:26;;;;;;;6.47;1.67;;;28.50;64.30;;;;;;6213454;23;20471;-86
2022/08/12 11:41:52;;;;;;;2.53;1.63;;;28.50;63.90;;;;;;6240146;23;20016;-87
2022/08/12 11:44:18;;;;;;;5.43;1.70;;;28.60;62.60;;;;;;6216324;23;20146;-83
2022/08/12 11:46:44;;;;;;;2.53;1.40;;;28.60;62.20;;;;;;6214923;23;20142;-85
2022/08/12 11:49:10;;;;;;;5.13;1.98;;;28.60;61.90;;;;;;6239698;23;20360;-86
2022/08/12 11:51:37;;;;;;;3.13;1.65;;;28.60;62.20;;;;;;6238971;23;20017;-83
2022/08/12 11:54:04;;;;;;;7.55;1.77;;;28.60;61.60;;;;;;6216230;23;20337;-86
2022/08/12 11:56:29;;;;;;;6.30;1.58;;;28.60;60.50;;;;;;6216516;23;20012;-85
2022/08/12 11:58:55;;;;;;;5.20;1.58;;;28.70;60.40;;;;;;6215521;23;20083;-86
2022/08/12 12:01:22;;;;;;;7.32;1.70;;;28.70;60.90;;;;;;6216594;23;20016;-85
2022/08/12 12:03:48;;;;;;;4.68;1.60;;;28.70;60.80;;;;;;6216312;23;20074;-84
2022/08/12 12:06:19;;;;;;;6.85;1.70;;;28.70;60.60;;;;;;6239516;23;20025;-86
2022/08/12 12:08:48;;;;;;;4.45;1.50;;;29.10;60.80;;;;;;6240354;23;20029;-86
2022/08/12 12:11:14;;;;;;;7.03;1.80;;;28.80;61.00;;;;;;6214230;23;20098;-84
2022/08/12 12:13:42;;;;;;;7.53;1.70;;;28.80;60.50;;;;;;6214347;23;20020;-86
2022/08/12 12:16:11;;;;;;;6.75;1.30;;;29.90;61.40;;;;;;6216246;23;20083;-86
2022/08/12 12:18:36;;;;;;;8.13;1.63;;;28.80;60.60;;;;;;6218073;23;20083;-84
2022/08/12 12:21:05;;;;;;;7.05;1.50;;;28.90;59.50;;;;;;6216005;23;20375;-88
2022/08/12 12:23:33;;;;;;;3.47;1.35;;;28.90;58.50;;;;;;6218287;23;20514;-87
2022/08/12 12:26:00;;;;;;;3.85;1.50;;;28.90;58.20;;;;;;6216115;23;20464;-89
2022/08/12 12:28:26;;;;;;;4.13;1.65;;;29.00;58.10;;;;;;6215980;23;20024;-89
2022/08/12 12:31:14;;;;;;;2.55;1.38;;;29.00;58.10;;;;;;6242002;23;20034;-91
2022/08/12 12:33:39;;;;;;;3.83;1.10;;;29.00;58.80;;;;;;6242786;23;20024;-88
2022/08/12 12:36:08;;;;;;;2.50;1.50;;;29.00;58.10;;;;;;6215600;23;20391;-89
2022/08/12 12:38:34;;;;;;;4.25;1.48;;;29.00;57.20;;;;;;6217538;23;20031;-88
2022/08/12 12:42:15;;;;;;;11.77;2.10;;;29.00;57.40;;;;;;6190123;23;20016;-88
2022/08/12 12:44:37;;;;;;;5.55;1.65;;;28.40;57.20;;;;;;6216653;22;20028;-90
2022/08/12 12:47:02;;;;;;;2.92;1.40;;;29.00;58.10;;;;;;6218001;23;20020;-91
2022/08/12 12:49:28;;;;;;;3.95;1.30;;;29.10;58.10;;;;;;6215418;23;20024;-87
2022/08/12 12:51:54;;;;;;;5.70;1.33;;;29.10;58.30;;;;;;6217773;23;20091;-88
2022/08/12 12:54:20;;;;;;;4.10;1.35;;;29.20;57.50;;;;;;6217762;23;20103;-90
2022/08/12 12:56:48;;;;;;;2.78;1.20;;;29.20;57.40;;;;;;6217065;23;20020;-88
2022/08/12 12:59:17;;;;;;;6.32;1.40;;;29.20;58.00;;;;;;6217830;23;20377;-90
2022/08/12 13:01:43;;;;;;;3.13;1.27;;;29.30;58.00;;;;;;6241855;23;20048;-86
2022/08/12 13:04:10;;;;;;;5.40;1.05;;;29.30;57.20;;;;;;6240236;23;20464;-90
2022/08/12 13:06:37;;;;;;;4.70;1.45;;;29.40;56.60;;;;;;6216122;23;20020;-88
2022/08/12 13:09:03;;;;;;;4.70;1.15;;;29.40;56.60;;;;;;6214973;23;20024;-89
2022/08/12 13:11:31;;;;;;;2.92;1.38;;;29.40;55.80;;;;;;6214713;23;20407;-90
2022/08/12 13:13:57;;;;;;;5.30;1.27;;;29.40;55.40;;;;;;6241569;23;20020;-89
2022/08/12 13:16:25;;;;;;;2.67;1.35;;;29.40;55.80;;;;;;6240317;23;20016;-85
2022/08/12 13:18:52;;;;;;;5.93;1.30;;;29.40;55.70;;;;;;6241370;23;20087;-89
2022/08/12 13:21:18;;;;;;;7.70;1.35;;;29.50;55.20;;;;;;6241476;23;20012;-87
2022/08/12 13:23:46;;;;;;;6.57;1.27;;;29.50;54.60;;;;;;6215294;23;20021;-89
2022/08/12 13:26:13;;;;;;;6.95;1.30;;;29.50;55.00;;;;;;6240575;23;20433;-92
2022/08/12 13:28:44;;;;;;;6.38;1.20;;;29.50;55.10;;;;;;6242153;23;20110;-88
2022/08/12 13:31:45;;;;;;;5.80;1.23;;;29.50;54.50;;;;;;6216516;23;20016;-88
2022/08/12 13:34:07;;;;;;;3.85;1.48;;;29.50;54.50;;;;;;6209644;23;20039;-88
2022/08/12 13:36:34;;;;;;;4.72;1.30;;;29.50;55.80;;;;;;6215456;23;20024;-88
2022/08/12 13:38:59;;;;;;;2.20;1.10;;;29.60;54.40;;;;;;6216375;23;20016;-87
2022/08/12 13:41:31;;;;;;;5.50;1.27;;;29.60;54.60;;;;;;6217509;23;20498;-86
2022/08/12 13:44:13;;;;;;;6.53;1.30;;;29.50;54.10;;;;;;6240853;23;20025;-88
2022/08/12 13:46:40;;;;;;;4.13;1.38;;;29.60;54.60;;;;;;6217788;23;20119;-90
2022/08/12 13:49:12;;;;;;;5.53;1.25;;;29.60;54.00;;;;;;6241086;23;20081;-91
2022/08/12 13:51:41;;;;;;;4.80;1.17;;;29.40;52.70;;;;;;6239545;23;20104;-87
2022/08/12 13:54:10;;;;;;;2.25;1.30;;;29.70;53.80;;;;;;6216712;23;20032;-87
2022/08/12 13:56:37;;;;;;;2.00;1.10;;;29.70;53.50;;;;;;6216897;23;20017;-91
2022/08/12 13:59:06;;;;;;;5.75;1.30;;;29.70;53.60;;;;;;6241159;23;20329;-86
2022/08/12 14:01:33;;;;;;;2.90;1.30;;;29.70;53.40;;;;;;6215481;23;20055;-90
2022/08/12 14:04:03;;;;;;;1.63;0.95;;;29.70;53.70;;;;;;6216815;23;20020;-88
2022/08/12 14:06:29;;;;;;;2.17;1.17;;;29.80;53.70;;;;;;6216357;23;20462;-91
2022/08/12 14:08:55;;;;;;;3.67;1.23;;;29.80;54.00;;;;;;6215369;23;20444;-87
2022/08/12 14:11:28;;;;;;;4.60;1.27;;;28.90;52.60;;;;;;6215142;23;20110;-91
2022/08/12 14:13:56;;;;;;;8.43;1.40;;;29.80;52.60;;;;;;6214390;23;20031;-89
2022/08/12 14:16:57;;;;;;;6.20;1.52;;;29.80;53.30;;;;;;6217032;23;20024;-90
2022/08/12 14:19:28;;;;;;;2.38;0.98;;;29.80;53.00;;;;;;6189579;23;20020;-92
2022/08/12 14:21:58;;;;;;;5.70;1.15;;;29.50;53.00;;;;;;6215357;23;20028;-91
2022/08/12 14:24:26;;;;;;;5.80;1.20;;;30.00;53.40;;;;;;6213977;23;20021;-89
2022/08/12 14:26:53;;;;;;;3.10;1.15;;;30.00;52.80;;;;;;6239227;23;20067;-85
2022/08/12 14:29:19;;;;;;;2.53;1.30;;;30.10;52.50;;;;;;6216561;23;20028;-88
2022/08/12 14:31:52;;;;;;;8.43;1.20;;;30.10;52.60;;;;;;6217085;23;20055;-89
2022/08/12 14:34:19;;;;;;;2.15;1.20;;;30.10;52.80;;;;;;6214762;23;20023;-86
2022/08/12 14:37:01;;;;;;;;;;;;;;;;;;;;;
2022/08/12 14:39:41;;;;;;;;;;;;;;;;;;;;;
2022/08/12 14:42:29;;;;;;;5.50;2.13;;;30.20;52.40;;;;;;6214114;23;20019;-91
2022/08/12 14:45:05;;;;;;;9.93;1.33;;;30.30;52.90;;;;;;6217106;23;20092;-87
2022/08/12 14:47:31;;;;;;;8.65;1.15;;;30.40;53.00;;;;;;6214337;23;20047;-88
2022/08/12 14:50:03;;;;;;;5.35;1.05;;;30.50;52.90;;;;;;6214965;23;20021;-90
2022/08/12 14:52:29;;;;;;;2.45;1.25;;;30.50;53.20;;;;;;6239993;23;20441;-88
2022/08/12 14:54:55;;;;;;;2.92;0.82;;;30.60;53.50;;;;;;6215856;23;20027;-89
2022/08/12 14:57:21;;;;;;;5.90;1.30;;;30.70;52.70;;;;;;6215112;23;20053;-91
2022/08/12 15:02:34;;;;;;;6.32;0.95;;;30.80;52.70;;;;;;6215698;23;20016;-88
2022/08/12 15:05:23;;;;;;;4.55;1.23;;;30.80;51.90;;;;;;6215379;23;20106;-90
2022/08/12 15:07:50;;;;;;;1.83;1.05;;;30.80;52.40;;;;;;6215992;22;20016;-89
2022/08/12 15:10:17;;;;;;;1.88;1.00;;;30.70;52.60;;;;;;6213869;23;20074;-87
2022/08/12 15:12:53;;;;;;;3.03;1.23;;;30.70;52.80;;;;;;6214828;23;20381;-91
2022/08/12 15:15:19;;;;;;;7.30;1.30;;;30.60;53.60;;;;;;6215259;23;20511;-89
2022/08/12 15:18:23;;;;;;;4.72;1.10;;;30.70;53.30;;;;;;6217467;23;20016;-87
2022/08/12 15:20:53;;;;;;;;;;;30.60;53.10;;;;;;6215828;23;20016;-87
2022/08/12 15:23:21;;;;;;;7.30;1.33;;;30.50;53.40;;;;;;6214407;23;19923;-91
2022/08/12 15:26:18;;;;;;;1.30;0.93;;;30.40;52.70;;;;;;6215355;23;20039;-90
2022/08/12 15:28:53;;;;;;;1.67;0.90;;;30.40;53.90;;;;;;6179945;23;20028;-89
2022/08/12 15:31:19;;;;;;;6.22;1.35;;;30.10;56.00;;;;;;6215923;23;20317;-94
2022/08/12 15:33:48;;;;;;;7.07;1.50;;;30.10;57.30;;;;;;6241696;23;20013;-90
2022/08/12 15:36:21;;;;;;;9.27;1.52;;;30.00;58.70;;;;;;6239297;23;20096;-93
2022/08/12 15:38:50;;;;;;;5.80;1.57;;;30.10;58.60;;;;;;6214132;23;20091;-91
2022/08/12 15:41:20;;;;;;;3.28;1.35;;;30.00;59.10;;;;;;6214780;23;20761;-86
2022/08/12 15:43:46;;;;;;;4.70;1.30;;;29.90;59.30;;;;;;6214683;23;20059;-91
2022/08/12 15:46:12;;;;;;;3.47;1.50;;;29.60;58.80;;;;;;6214972;23;20024;-89
2022/08/12 15:48:52;;;;;;;7.13;1.90;;;29.70;59.10;;;;;;6218062;23;20017;-90
2022/08/12 15:52:13;;;;;;;4.60;1.60;;;29.00;58.00;;;;;;6241700;23;20025;-91
2022/08/12 15:54:41;;;;;;;3.70;1.23;;;29.40;58.80;;;;;;6144951;23;20338;-90
2022/08/12 15:57:07;;;;;;;7.07;1.33;;;29.40;59.60;;;;;;6131627;23;20028;-87
2022/08/12 16:00:08;;;;;;;1.77;1.13;;;29.40;59.90;;;;;;6216392;23;20091;-91
2022/08/12 16:03:12;;;;;;;4.63;1.90;;;29.50;59.90;;;;;;6190988;23;20404;-91
2022/08/12 16:05:46;;;;;;;2.83;1.33;;;29.40;59.90;;;;;;6216509;23;20083;-90
2022/08/12 16:08:35;;;;;;;9.27;1.75;;;30.00;60.30;;;;;;6200156;23;20023;-92
2022/08/12 16:11:05;;;;;;;3.13;1.45;;;29.30;60.00;;;;;;6218788;23;20020;-92
2022/08/12 16:14:02;;;;;;;4.05;1.55;;;29.30;60.10;;;;;;6216549;23;20028;-90
2022/08/12 16:16:34;;;;;;;6.65;1.42;;;29.30;59.90;;;;;;6216802;23;20016;-93
2022/08/12 16:19:06;;;;;;;2.80;1.55;;;29.30;60.40;;;;;;6241910;23;20075;-92
2022/08/12 16:22:09;;;;;;;5.78;1.40;;;30.10;60.60;;;;;;6217069;23;20091;-92
2022/08/12 16:24:49;;;;;;;;;;;;;;;;;;;;;
2022/08/12 16:27:33;;;;;;;2.00;1.55;;;29.60;59.90;;;;;;6215330;23;20020;-92